Time;durP1;ratioP1;P1;durP2;ratioP2;P2;SDS_P1;SDS_P2;PMS_P1;PMS_P2;Temp;Humidity;BMP_temperature;BMP_pressure;BME280_temperature;BME280_humidity;BME280_pressure;Samples;Min_cycle;Max_cycle;Signal;HPM_P1;HPM_P2
2023/07/20 00:01:26;;;;;;;5.70;1.30;;;;;;;24.15;42.08;97930.88;5055883;28;20098;-67
2023/07/20 00:03:55;;;;;;;5.65;1.08;;;;;;;24.00;42.60;97925.63;5036871;28;20140;-67
2023/07/20 00:06:24;;;;;;;7.65;1.35;;;;;;;24.19;42.24;97935.47;5052570;28;20136;-68
2023/07/20 00:08:51;;;;;;;3.72;1.20;;;;;;;24.21;42.00;97929.75;5052756;28;20064;-67
2023/07/20 00:11:17;;;;;;;9.20;1.33;;;;;;;24.01;42.61;97928.03;5053645;28;20075;-67
2023/07/20 00:13:43;;;;;;;2.83;1.08;;;;;;;24.04;42.60;97937.50;5037308;28;20100;-66
2023/07/20 00:16:09;;;;;;;2.20;1.23;;;;;;;23.78;42.51;97922.50;5053568;28;20604;-68
2023/07/20 00:18:34;;;;;;;1.20;1.00;;;;;;;23.83;42.80;97938.75;5038035;28;20067;-69
2023/07/20 00:21:01;;;;;;;2.22;1.10;;;;;;;23.98;42.14;97944.06;5051579;28;20044;-67
2023/07/20 00:23:28;;;;;;;2.15;1.17;;;;;;;23.98;42.76;97938.66;5053901;28;20514;-67
2023/07/20 00:25:54;;;;;;;4.32;1.08;;;;;;;23.90;42.53;97926.47;5035345;28;20056;-66
2023/07/20 00:28:20;;;;;;;4.38;1.10;;;;;;;23.90;42.80;97950.06;5051843;28;20053;-67
2023/07/20 00:30:49;;;;;;;6.47;1.10;;;;;;;23.75;42.89;97944.78;5035652;28;20168;-67
2023/07/20 00:33:18;;;;;;;3.42;1.02;;;;;;;24.10;42.70;97947.19;5019035;28;20041;-68
2023/07/20 00:35:44;;;;;;;3.28;1.20;;;;;;;23.80;42.75;97945.53;5053546;28;20099;-67
2023/07/20 00:38:10;;;;;;;3.30;1.10;;;;;;;23.68;43.05;97945.09;5036672;28;20056;-67
2023/07/20 00:40:40;;;;;;;3.38;1.10;;;;;;;24.19;42.84;97953.63;5053591;28;20117;-67
2023/07/20 00:43:06;;;;;;;2.88;1.23;;;;;;;23.86;42.85;97949.03;5020839;28;20037;-68
2023/07/20 00:45:33;;;;;;;7.22;1.50;;;;;;;23.98;43.11;97944.06;5054279;28;20045;-68
2023/07/20 00:47:59;;;;;;;1.85;1.10;;;;;;;23.96;42.48;97946.25;5053295;28;20041;-68
2023/07/20 00:50:26;;;;;;;5.60;1.17;;;;;;;23.92;43.27;97942.47;5053986;28;20045;-67
2023/07/20 00:52:53;;;;;;;2.50;1.17;;;;;;;23.98;42.69;97952.19;5020128;28;20124;-67
2023/07/20 00:55:19;;;;;;;7.68;1.30;;;;;;;23.69;43.24;97946.72;5020206;28;20045;-67
2023/07/20 00:57:47;;;;;;;4.47;1.13;;;;;;;23.86;43.30;97935.47;5052745;28;20048;-67
2023/07/20 01:00:13;;;;;;;1.92;1.08;;;;;;;23.82;42.71;97937.13;5054260;28;20360;-68
2023/07/20 01:02:39;;;;;;;3.47;1.10;;;;;;;23.74;42.90;97954.78;5054342;28;20421;-67
2023/07/20 01:05:06;;;;;;;3.17;1.17;;;;;;;23.86;43.28;97962.59;5053793;28;20044;-67
2023/07/20 01:07:43;;;;;;;3.22;1.02;;;;;;;23.97;43.19;97951.38;5053091;28;20045;-68
2023/07/20 01:10:17;;;;;;;6.25;1.10;;;;;;;23.90;43.51;97952.78;5053900;28;20152;-67
2023/07/20 01:12:51;;;;;;;2.80;1.20;;;;;;;23.96;43.51;97948.97;5036125;28;20049;-67
2023/07/20 01:15:17;;;;;;;3.88;1.17;;;;;;;23.53;43.58;97947.91;5052203;28;20072;-66
2023/07/20 01:17:44;;;;;;;4.20;1.20;;;;;;;23.51;43.44;97949.31;5034153;28;20091;-68
2023/07/20 01:20:13;;;;;;;2.15;1.20;;;;;;;23.86;43.52;97947.13;5050615;28;20067;-67
2023/07/20 01:23:06;;;;;;;3.63;1.10;;;;;;;24.06;43.51;97951.59;5033836;28;20119;-67
2023/07/20 01:25:51;;;;;;;1.10;1.00;;;;;;;24.04;43.47;97959.19;5050435;28;20049;-67
2023/07/20 01:28:16;;;;;;;4.95;1.20;;;;;;;23.37;44.03;97959.13;5050168;28;20044;-66
2023/07/20 01:31:24;;;;;;;4.00;1.02;;;;;;;24.05;43.68;97947.28;5050427;28;20049;-67
2023/07/20 01:33:53;;;;;;;1.90;1.30;;;;;;;23.66;43.86;97950.00;5052176;28;20140;-66
2023/07/20 01:36:19;;;;;;;5.13;1.20;;;;;;;23.74;43.83;97956.72;5053035;28;20132;-66
2023/07/20 01:38:46;;;;;;;3.70;1.00;;;;;;;23.69;43.46;97951.31;5054517;28;20045;-65
2023/07/20 01:41:13;;;;;;;7.03;1.10;;;;;;;23.77;43.66;97948.81;5051919;28;20041;-67
2023/07/20 01:43:38;;;;;;;3.47;1.13;;;;;;;23.50;43.69;97950.38;5052426;28;20045;-67
2023/07/20 01:46:05;;;;;;;2.33;1.00;;;;;;;23.54;43.64;97952.22;5035683;28;20274;-67
2023/07/20 01:48:31;;;;;;;1.83;1.27;;;;;;;23.57;43.67;97945.47;5035765;28;20557;-66
2023/07/20 01:50:56;;;;;;;4.70;1.20;;;;;;;23.52;43.81;97951.72;5035390;28;20416;-66
2023/07/20 01:53:22;;;;;;;2.45;1.00;;;;;;;23.43;43.74;97945.28;5051841;28;20118;-66
2023/07/20 01:55:48;;;;;;;2.70;1.10;;;;;;;23.51;43.60;97960.94;5053305;28;20099;-67
2023/07/20 01:58:15;;;;;;;2.70;1.20;;;;;;;23.56;43.91;97960.06;5035531;28;20733;-67
2023/07/20 02:00:40;;;;;;;3.28;0.95;;;;;;;23.44;43.80;97967.75;5018521;28;20064;-67
2023/07/20 02:03:06;;;;;;;7.68;1.40;;;;;;;23.55;43.92;97964.72;5052036;28;20048;-67
2023/07/20 02:05:32;;;;;;;4.93;1.20;;;;;;;23.60;43.84;97958.44;5052473;28;20041;-68
2023/07/20 02:07:58;;;;;;;3.08;1.00;;;;;;;23.46;44.20;97947.44;5052583;28;20045;-68
2023/07/20 02:10:24;;;;;;;4.68;1.33;;;;;;;23.56;44.01;97954.66;5034946;28;20134;-67
2023/07/20 02:12:49;;;;;;;11.30;1.50;;;;;;;23.47;44.01;97959.88;5034830;28;20048;-67
2023/07/20 02:15:19;;;;;;;5.47;1.20;;;;;;;23.61;43.63;97951.94;5052656;28;20037;-67
2023/07/20 02:17:45;;;;;;;2.72;1.02;;;;;;;23.74;43.84;97962.94;5051585;28;20531;-67
2023/07/20 02:20:12;;;;;;;2.17;1.20;;;;;;;23.95;43.55;97961.69;5018654;28;20055;-68
2023/07/20 02:22:39;;;;;;;8.30;1.20;;;;;;;23.81;43.77;97965.31;5051606;28;20041;-67
2023/07/20 02:25:05;;;;;;;2.13;1.15;;;;;;;23.83;43.80;97972.09;5051516;28;20044;-67
2023/07/20 02:27:31;;;;;;;7.50;1.45;;;;;;;23.57;43.73;97965.22;5052798;28;20135;-68
2023/07/20 02:29:57;;;;;;;2.35;1.00;;;;;;;23.71;43.70;97960.78;5018011;28;20123;-68
2023/07/20 02:32:23;;;;;;;3.72;1.23;;;;;;;23.82;43.46;97973.19;5051088;28;20045;-68
2023/07/20 02:34:49;;;;;;;1.88;1.20;;;;;;;23.86;43.76;97970.72;5034620;28;20037;-68
2023/07/20 02:37:14;;;;;;;4.00;1.83;;;;;;;23.78;43.35;97968.59;5050928;28;20146;-68
2023/07/20 02:39:40;;;;;;;6.70;1.20;;;;;;;23.74;43.56;97965.63;5051231;28;20049;-68
2023/07/20 02:42:06;;;;;;;5.15;1.05;;;;;;;23.78;43.67;97977.56;5051368;28;20054;-68
2023/07/20 02:44:32;;;;;;;7.85;1.27;;;;;;;23.87;43.29;97978.56;5020711;28;20136;-68
2023/07/20 02:46:57;;;;;;;4.97;1.70;;;;;;;23.90;43.44;97980.72;5052477;28;20122;-67
2023/07/20 02:49:23;;;;;;;3.75;1.20;;;;;;;23.92;43.08;97983.97;5053679;28;20463;-66
2023/07/20 02:51:49;;;;;;;5.65;1.10;;;;;;;24.00;43.11;97994.22;5037120;28;20045;-67
2023/07/20 02:54:15;;;;;;;4.82;1.10;;;;;;;24.03;43.26;97984.72;5051890;28;20430;-67
2023/07/20 02:56:40;;;;;;;3.28;1.00;;;;;;;23.97;43.37;97991.28;5050711;28;20103;-67
2023/07/20 02:59:06;;;;;;;2.88;1.20;;;;;;;24.11;43.30;97997.66;5051200;28;20040;-68
2023/07/20 03:01:32;;;;;;;2.47;0.90;;;;;;;24.11;42.80;97987.59;5050996;28;20094;-66
2023/07/20 03:03:58;;;;;;;1.63;0.95;;;;;;;24.20;42.89;97976.97;5034460;28;20052;-66
2023/07/20 03:06:24;;;;;;;3.42;1.10;;;;;;;23.89;43.17;97989.13;5049688;28;20041;-66
2023/07/20 03:08:51;;;;;;;4.90;1.00;;;;;;;24.07;43.22;97978.44;5049269;28;20092;-67
2023/07/20 03:11:18;;;;;;;2.83;1.05;;;;;;;24.29;43.08;97995.06;5032847;28;20104;-67
2023/07/20 03:13:44;;;;;;;7.20;1.02;;;;;;;24.25;43.37;97998.59;5037950;28;20045;-70
2023/07/20 03:16:12;;;;;;;5.10;1.48;;;;;;;24.33;43.28;97995.28;5056428;28;20147;-67
2023/07/20 03:18:39;;;;;;;6.30;1.20;;;;;;;24.48;42.87;97989.69;5057430;28;20037;-67
2023/07/20 03:21:06;;;;;;;4.43;1.10;;;;;;;24.83;41.71;98005.66;5058346;28;20048;-66
2023/07/20 03:23:32;;;;;;;4.80;1.23;;;;;;;24.75;41.68;97998.13;5040352;28;20041;-67
2023/07/20 03:25:57;;;;;;;6.72;1.27;;;;;;;24.75;41.47;98012.53;5057091;28;20051;-68
2023/07/20 03:28:23;;;;;;;2.90;1.20;;;;;;;24.80;41.26;98001.59;5055508;28;20043;-68
2023/07/20 03:30:56;;;;;;;6.70;1.00;;;;;;;25.21;41.33;98001.94;5055929;28;20048;-68
2023/07/20 03:33:24;;;;;;;5.65;1.20;;;;;;;25.00;41.70;98014.16;5038374;28;20082;-68
2023/07/20 03:35:50;;;;;;;4.57;1.00;;;;;;;24.98;40.83;98008.19;5055790;28;20136;-68
2023/07/20 03:38:16;;;;;;;8.35;1.02;;;;;;;24.94;41.13;98007.13;5056166;28;20132;-69
2023/07/20 03:40:52;;;;;;;9.15;2.08;;;;;;;25.40;40.64;98004.69;5055231;28;20056;-68
2023/07/20 03:43:18;;;;;;;2.17;0.95;;;;;;;25.33;40.72;98009.69;5057361;28;20049;-68
2023/07/20 03:45:51;;;;;;;4.50;1.20;;;;;;;25.37;40.34;98006.06;5057138;28;20128;-69
2023/07/20 03:48:18;;;;;;;4.53;1.10;;;;;;;25.58;40.19;98009.34;5046183;28;20041;-67
2023/07/20 03:50:49;;;;;;;3.38;1.42;;;;;;;25.77;40.32;98013.66;5036120;28;20053;-68
2023/07/20 03:53:16;;;;;;;5.18;1.13;;;;;;;25.46;40.33;98009.78;5051855;28;20037;-68
2023/07/20 03:55:48;;;;;;;4.03;1.10;;;;;;;25.88;40.28;98004.25;5046110;28;20065;-68
2023/07/20 03:58:14;;;;;;;2.30;1.00;;;;;;;25.80;39.28;98018.50;5048677;28;20474;-68
2023/07/20 04:00:40;;;;;;;1.90;0.98;;;;;;;26.00;39.07;98020.16;5058240;28;20049;-67
2023/07/20 04:03:06;;;;;;;11.95;2.78;;;;;;;25.85;39.01;98015.72;5057269;28;20079;-67
2023/07/20 04:05:32;;;;;;;10.93;2.72;;;;;;;25.97;38.64;98018.78;5056845;28;20032;-68
2023/07/20 04:07:58;;;;;;;10.32;1.80;;;;;;;26.16;38.79;98003.28;5056973;28;20502;-68
2023/07/20 04:10:24;;;;;;;7.78;1.45;;;;;;;26.41;37.83;98027.38;5023897;28;20372;-68
2023/07/20 04:12:52;;;;;;;5.55;1.42;;;;;;;26.74;37.70;98025.41;5058121;28;20044;-70
2023/07/20 04:15:18;;;;;;;5.97;1.08;;;;;;;26.68;36.97;98039.44;5041327;28;20075;-68
2023/07/20 04:17:45;;;;;;;4.97;1.30;;;;;;;27.10;36.90;98029.06;5057880;28;20148;-68
2023/07/20 04:20:11;;;;;;;5.60;1.30;;;;;;;26.90;36.96;98036.84;5057181;28;20055;-68
2023/07/20 04:22:37;;;;;;;8.00;1.42;;;;;;;26.95;36.68;98039.47;5023947;28;20036;-68
2023/07/20 04:25:04;;;;;;;5.03;1.30;;;;;;;27.18;36.24;98038.47;5053881;28;20140;-68
2023/07/20 04:27:30;;;;;;;10.27;1.80;;;;;;;26.99;36.42;98040.47;5053157;28;20416;-70
2023/07/20 04:29:59;;;;;;;3.47;0.98;;;;;;;27.17;36.55;98045.81;5020504;28;20510;-70
2023/07/20 04:32:26;;;;;;;5.93;2.05;;;;;;;27.06;36.30;98036.22;5020994;28;20048;-69
2023/07/20 04:34:52;;;;;;;6.97;2.22;;;;;;;26.77;36.89;98038.44;5020716;28;20076;-70
2023/07/20 04:37:18;;;;;;;3.60;1.63;;;;;;;26.89;36.56;98041.50;5053716;28;20421;-69
2023/07/20 04:39:46;;;;;;;5.85;1.90;;;;;;;26.75;36.65;97999.81;5037116;28;20106;-69
2023/07/20 04:42:11;;;;;;;6.55;1.13;;;;;;;26.76;36.97;98034.09;5037254;28;20487;-69
2023/07/20 04:44:38;;;;;;;2.55;1.05;;;;;;;26.95;36.41;98042.19;5020828;28;20048;-69
2023/07/20 04:47:05;;;;;;;2.60;1.38;;;;;;;26.81;36.84;98039.47;5020781;28;20048;-69
2023/07/20 04:49:34;;;;;;;3.60;1.20;;;;;;;26.95;36.33;98044.91;5019526;28;20483;-69
2023/07/20 04:52:00;;;;;;;5.20;1.77;;;;;;;26.95;36.32;98047.66;5053521;28;20144;-69
2023/07/20 04:54:27;;;;;;;5.60;1.05;;;;;;;27.03;36.22;98047.72;5021581;28;20041;-69
2023/07/20 04:56:54;;;;;;;4.53;1.25;;;;;;;27.07;36.04;98037.88;5054115;28;20379;-69
2023/07/20 04:59:20;;;;;;;3.85;1.10;;;;;;;26.95;36.00;98048.47;5036945;28;20060;-69
2023/07/20 05:01:46;;;;;;;6.88;1.20;;;;;;;27.02;36.68;98037.13;5052975;28;20041;-69
2023/07/20 05:04:13;;;;;;;3.97;1.40;;;;;;;27.18;36.32;98047.47;5020357;28;20175;-69
2023/07/20 05:06:39;;;;;;;4.47;1.70;;;;;;;27.37;35.13;98050.09;5053819;28;20072;-69
2023/07/20 05:09:06;;;;;;;5.65;1.13;;;;;;;27.41;35.02;98053.81;5053039;28;20049;-69
2023/07/20 05:11:32;;;;;;;4.05;1.00;;;;;;;27.49;34.79;98047.66;5054172;28;20064;-72
2023/07/20 05:13:58;;;;;;;2.67;1.00;;;;;;;27.29;35.44;98054.31;5053057;28;20040;-70
2023/07/20 05:16:24;;;;;;;2.25;1.00;;;;;;;27.26;35.20;98056.88;5053960;28;20047;-69
2023/07/20 05:18:51;;;;;;;5.60;0.90;;;;;;;26.81;36.06;98061.25;5053801;28;20068;-69
2023/07/20 05:21:16;;;;;;;3.13;1.70;;;;;;;27.23;35.49;98054.72;5052709;28;20049;-70
2023/07/20 05:23:42;;;;;;;6.00;1.98;;;;;;;27.45;35.35;98063.00;5052797;28;20091;-69
2023/07/20 05:26:09;;;;;;;3.95;1.30;;;;;;;27.38;34.58;98054.44;5019565;28;20048;-69
2023/07/20 05:28:36;;;;;;;5.32;1.05;;;;;;;27.66;34.20;98048.63;5019441;28;20045;-69
2023/07/20 05:31:05;;;;;;;2.45;1.05;;;;;;;28.04;34.28;98062.81;5052248;28;20041;-69
2023/07/20 05:33:31;;;;;;;3.88;1.15;;;;;;;27.79;34.15;98058.72;5036803;28;20056;-69
2023/07/20 05:35:56;;;;;;;2.13;1.13;;;;;;;27.51;35.00;98056.31;5036535;28;20112;-69
2023/07/20 05:38:22;;;;;;;5.53;0.98;;;;;;;27.68;33.97;98057.31;5037192;28;20044;-70
2023/07/20 05:40:48;;;;;;;3.28;1.10;;;;;;;27.81;33.24;98052.94;5053444;28;20079;-70
2023/07/20 05:43:14;;;;;;;3.97;1.00;;;;;;;28.00;33.63;98053.59;5036061;28;20044;-69
2023/07/20 05:45:47;;;;;;;5.15;1.10;;;;;;;28.00;33.28;98048.97;5051888;28;20098;-70
2023/07/20 05:48:13;;;;;;;2.50;1.00;;;;;;;27.87;33.16;98054.47;5036507;28;20444;-70
2023/07/20 05:50:43;;;;;;;4.47;1.20;;;;;;;28.51;32.71;98051.28;5053525;28;20049;-69
2023/07/20 05:53:09;;;;;;;2.25;1.00;;;;;;;27.94;32.56;98041.19;5053666;28;20049;-72
2023/07/20 05:55:35;;;;;;;4.65;1.00;;;;;;;28.22;32.15;98048.16;5051798;28;20398;-70
2023/07/20 05:58:01;;;;;;;2.15;0.98;;;;;;;28.27;32.04;98048.06;5019145;28;20041;-70
2023/07/20 06:00:28;;;;;;;2.13;1.10;;;;;;;27.93;32.66;98045.88;5052094;28;20071;-70
2023/07/20 06:02:54;;;;;;;3.92;1.10;;;;;;;28.52;31.73;98058.38;5035520;28;20063;-69
2023/07/20 06:05:23;;;;;;;3.75;1.10;;;;;;;28.70;31.97;98051.91;5052608;28;20040;-69
2023/07/20 06:07:50;;;;;;;6.15;2.15;;;;;;;28.38;31.12;98043.16;5052712;28;20095;-70
2023/07/20 06:10:17;;;;;;;4.40;1.08;;;;;;;28.37;31.88;98060.66;5052377;28;20491;-69
2023/07/20 06:12:44;;;;;;;4.15;1.42;;;;;;;28.56;31.08;98037.50;5052682;28;20360;-69
2023/07/20 06:15:32;;;;;;;4.88;0.88;;;;;;;29.08;30.03;98052.25;5050991;28;20064;-69
2023/07/20 06:17:58;;;;;;;0.98;0.82;;;;;;;28.84;29.62;98055.34;5051717;28;20037;-69
2023/07/20 06:20:24;;;;;;;6.40;1.00;;;;;;;29.02;29.69;98057.03;5052664;28;20096;-68
2023/07/20 06:22:50;;;;;;;1.20;0.70;;;;;;;28.81;29.65;98055.97;5034659;28;20064;-69
2023/07/20 06:25:17;;;;;;;3.35;0.73;;;;;;;28.89;29.61;98060.66;5052480;28;20051;-69
2023/07/20 06:27:43;;;;;;;3.05;0.90;;;;;;;29.24;28.76;98051.53;5052305;28;20037;-69
2023/07/20 06:30:09;;;;;;;3.58;0.80;;;;;;;29.23;29.07;98060.06;5018452;28;20041;-68
2023/07/20 06:32:38;;;;;;;6.00;1.20;;;;;;;29.53;28.94;98059.97;5051025;28;20056;-69
2023/07/20 06:35:06;;;;;;;3.22;0.90;;;;;;;28.78;28.92;98064.81;5035214;28;20056;-68
2023/07/20 06:37:32;;;;;;;5.85;0.88;;;;;;;29.19;28.71;98062.59;5052299;28;20386;-70
2023/07/20 06:39:59;;;;;;;5.60;0.95;;;;;;;29.39;28.17;98058.47;5052422;28;20118;-68
2023/07/20 06:42:24;;;;;;;1.55;0.85;;;;;;;29.21;28.38;98057.63;5052312;28;20128;-67
2023/07/20 06:44:50;;;;;;;3.60;1.00;;;;;;;29.48;28.19;98054.66;5051248;28;20044;-67
2023/07/20 06:47:16;;;;;;;2.33;0.80;;;;;;;29.58;27.41;98062.53;5050726;28;20459;-67
2023/07/20 06:49:42;;;;;;;3.15;1.00;;;;;;;29.65;27.35;98056.63;5034641;28;20188;-68
2023/07/20 06:52:08;;;;;;;3.33;1.20;;;;;;;29.60;27.50;98041.16;5051060;28;20052;-69
2023/07/20 06:54:33;;;;;;;2.60;0.70;;;;;;;29.75;26.95;98052.78;5052234;28;20045;-70
2023/07/20 06:56:59;;;;;;;1.63;1.23;;;;;;;29.91;27.23;98060.22;5052133;28;20467;-70
2023/07/20 06:59:25;;;;;;;6.70;1.08;;;;;;;30.36;26.61;98077.97;5034617;28;20051;-70
2023/07/20 07:01:51;;;;;;;4.13;0.98;;;;;;;30.61;26.17;98059.88;5018314;28;20144;-70
2023/07/20 07:04:19;;;;;;;5.28;0.80;;;;;;;31.01;26.03;98072.22;5017422;28;20055;-69
2023/07/20 07:06:46;;;;;;;7.68;1.10;;;;;;;31.05;25.59;98075.91;5034036;28;20392;-69
2023/07/20 07:09:13;;;;;;;4.35;0.98;;;;;;;31.42;25.26;98049.63;5033366;28;20076;-69
2023/07/20 07:11:39;;;;;;;3.33;1.10;;;;;;;31.77;24.38;98070.25;5033452;28;20071;-69
2023/07/20 07:14:05;;;;;;;3.78;0.85;;;;;;;31.51;24.84;98062.16;5017225;28;20052;-69
2023/07/20 07:16:31;;;;;;;3.53;0.77;;;;;;;32.17;24.11;98066.72;5050112;28;20530;-69
2023/07/20 07:18:57;;;;;;;3.17;1.00;;;;;;;32.16;23.95;98065.13;5033085;28;20049;-69
2023/07/20 07:21:23;;;;;;;3.42;1.00;;;;;;;32.14;23.66;98075.66;5032974;28;20092;-67
2023/07/20 07:23:49;;;;;;;1.88;0.90;;;;;;;32.85;22.80;98078.22;5049630;28;20139;-70
2023/07/20 07:26:15;;;;;;;2.67;0.95;;;;;;;33.54;22.08;98068.03;5016252;28;20072;-70
2023/07/20 07:28:41;;;;;;;5.80;0.82;;;;;;;34.59;20.84;98076.78;5049301;28;20498;-68
2023/07/20 07:31:07;;;;;;;5.90;0.95;;;;;;;35.15;20.42;98086.59;5049153;28;20041;-69
2023/07/20 07:33:34;;;;;;;1.83;0.80;;;;;;;35.56;19.67;98083.31;5049133;28;20068;-69
2023/07/20 07:36:00;;;;;;;4.20;1.17;;;;;;;35.33;19.73;98085.09;5016602;28;20057;-68
2023/07/20 07:38:25;;;;;;;1.90;0.90;;;;;;;36.23;18.66;98086.84;5033100;28;20059;-68
2023/07/20 07:40:52;;;;;;;2.15;0.95;;;;;;;37.21;18.11;98083.31;5016021;28;20049;-69
2023/07/20 07:43:17;;;;;;;6.28;1.70;;;;;;;39.01;16.41;98097.78;5017005;28;20138;-68
2023/07/20 07:45:43;;;;;;;3.45;0.90;;;;;;;40.65;14.66;98097.38;5032960;28;20490;-68
2023/07/20 07:48:11;;;;;;;4.75;1.02;;;;;;;41.40;14.13;98097.19;5052184;28;20560;-68
2023/07/20 07:50:39;;;;;;;4.53;1.15;;;;;;;42.35;13.13;98099.91;5050625;28;20037;-68
2023/07/20 07:53:05;;;;;;;2.20;1.00;;;;;;;41.99;13.24;98088.03;5050378;28;20041;-68
2023/07/20 07:55:31;;;;;;;5.90;1.17;;;;;;;42.21;13.07;98088.78;5051294;28;20102;-69
2023/07/20 07:57:57;;;;;;;4.43;1.10;;;;;;;41.28;13.44;98092.00;5050324;28;20372;-69
2023/07/20 08:00:23;;;;;;;2.85;0.80;;;;;;;42.21;13.24;98088.78;5053234;28;20044;-68
2023/07/20 08:02:50;;;;;;;2.60;1.10;;;;;;;42.54;13.56;98082.66;5055304;28;20040;-68
2023/07/20 08:05:16;;;;;;;4.93;1.00;;;;;;;43.79;12.34;98093.44;5037608;28;20047;-68
2023/07/20 08:07:42;;;;;;;2.83;0.95;;;;;;;45.54;11.06;98104.47;5037456;28;20232;-68
2023/07/20 08:10:08;;;;;;;9.52;1.00;;;;;;;45.90;10.81;98100.63;5054746;28;20060;-69
2023/07/20 08:12:34;;;;;;;5.65;1.10;;;;;;;46.03;10.30;98093.19;5054692;28;20044;-69
2023/07/20 08:15:01;;;;;;;4.57;1.00;;;;;;;45.91;10.30;98096.63;5020410;28;20068;-69
2023/07/20 08:17:27;;;;;;;6.78;1.10;;;;;;;45.00;11.09;98086.03;5054776;28;20036;-68
2023/07/20 08:19:53;;;;;;;7.55;1.10;;;;;;;43.61;12.09;98076.81;5037109;28;20037;-68
2023/07/20 08:22:19;;;;;;;6.38;0.98;;;;;;;43.79;12.40;98082.25;5054849;28;20094;-70
2023/07/20 08:24:45;;;;;;;3.80;1.05;;;;;;;42.63;12.40;98083.03;5003968;28;20047;-70
2023/07/20 08:27:11;;;;;;;5.35;1.10;;;;;;;42.64;12.22;98079.06;5051957;28;20131;-71
2023/07/20 08:29:37;;;;;;;3.15;1.00;;;;;;;42.93;12.17;98077.72;5034882;28;20530;-70
2023/07/20 08:32:04;;;;;;;3.38;1.05;;;;;;;44.47;11.42;98083.94;5002899;28;20040;-71
2023/07/20 08:34:30;;;;;;;2.50;1.00;;;;;;;43.91;11.66;98088.16;5054603;28;20379;-72
2023/07/20 08:36:57;;;;;;;3.92;1.00;;;;;;;42.70;12.00;98086.59;5020831;28;20056;-70
2023/07/20 08:39:24;;;;;;;4.15;1.00;;;;;;;40.73;13.91;98077.56;5036945;28;20154;-71
2023/07/20 08:41:53;;;;;;;3.50;1.00;;;;;;;40.27;14.39;98067.41;5004185;28;20507;-71
2023/07/20 08:44:19;;;;;;;3.55;1.17;;;;;;;40.16;14.55;98081.25;5036121;28;20044;-71
2023/07/20 08:46:45;;;;;;;6.35;0.98;;;;;;;41.72;13.57;98067.31;5003786;28;20045;-70
2023/07/20 08:49:11;;;;;;;3.72;1.20;;;;;;;43.96;11.86;98075.72;5037811;28;20044;-71
2023/07/20 08:51:39;;;;;;;6.18;1.23;;;;;;;44.39;11.06;98088.03;5037205;28;20057;-71
2023/07/20 08:54:06;;;;;;;3.55;1.00;;;;;;;43.00;11.68;98080.44;5038486;28;20051;-71
2023/07/20 08:56:34;;;;;;;4.20;0.95;;;;;;;40.56;13.77;98057.97;5055153;28;20447;-70
2023/07/20 08:59:01;;;;;;;2.08;0.80;;;;;;;38.60;15.46;98081.03;5020632;28;20037;-70
2023/07/20 09:01:34;;;;;;;2.30;0.93;;;;;;;38.20;16.13;98057.91;5035614;28;20056;-70
2023/07/20 09:04:00;;;;;;;3.13;1.13;;;;;;;35.77;18.30;98052.63;5036112;28;20055;-70
2023/07/20 09:06:26;;;;;;;3.42;1.10;;;;;;;35.17;19.31;98064.16;5002240;28;20056;-70
2023/07/20 09:08:52;;;;;;;3.92;0.80;;;;;;;34.78;19.59;98065.84;5002791;28;20080;-69
2023/07/20 09:11:18;;;;;;;2.60;1.00;;;;;;;34.31;20.55;98064.91;5035061;28;20582;-70
2023/07/20 09:13:44;;;;;;;4.07;1.35;;;;;;;35.37;19.75;98077.72;5002149;28;20136;-71
2023/07/20 09:16:14;;;;;;;2.08;0.90;;;;;;;37.53;17.94;98076.31;5002707;28;20078;-71
2023/07/20 09:18:40;;;;;;;2.45;1.50;;;;;;;39.61;15.70;98088.81;5019000;28;20391;-70
2023/07/20 09:21:06;;;;;;;3.15;1.10;;;;;;;42.43;13.52;98091.09;5018974;28;20051;-71
2023/07/20 09:23:37;;;;;;;2.72;0.90;;;;;;;43.21;12.79;98074.75;4986018;28;20069;-71
2023/07/20 09:26:14;;;;;;;2.83;1.10;;;;;;;42.86;13.11;98075.75;5002098;28;20049;-70
2023/07/20 09:28:48;;;;;;;3.55;0.75;;;;;;;40.06;14.38;98076.41;5018539;28;20138;-71
2023/07/20 09:31:18;;;;;;;1.85;0.90;;;;;;;36.59;17.19;98078.13;5036445;28;20049;-70
2023/07/20 09:33:47;;;;;;;5.85;1.00;;;;;;;36.10;18.11;98066.81;5036151;28;20048;-70
2023/07/20 09:36:15;;;;;;;5.25;1.00;;;;;;;36.40;19.10;98065.09;5002466;28;20128;-71
2023/07/20 09:38:43;;;;;;;1.45;1.00;;;;;;;34.63;20.67;98063.88;5024845;28;20071;-70
2023/07/20 09:41:18;;;;;;;3.13;1.25;;;;;;;35.98;20.50;98074.44;5003701;28;20459;-70
2023/07/20 09:43:46;;;;;;;3.75;1.38;;;;;;;38.65;18.16;98093.78;5004002;28;20453;-70
2023/07/20 09:46:17;;;;;;;4.18;1.52;;;;;;;40.19;16.14;98083.25;5020514;28;20057;-70
2023/07/20 09:48:53;;;;;;;3.75;1.38;;;;;;;41.59;15.05;98086.47;5020238;28;20095;-70
2023/07/20 09:51:24;;;;;;;4.03;1.33;;;;;;;43.00;13.67;98080.44;5019544;28;20052;-71
2023/07/20 09:53:54;;;;;;;1.88;1.13;;;;;;;43.69;13.14;98088.75;5003514;28;20068;-71
2023/07/20 09:56:22;;;;;;;3.78;1.27;;;;;;;43.74;13.44;98075.09;5019819;28;20116;-70
2023/07/20 09:58:48;;;;;;;2.10;1.00;;;;;;;45.13;12.17;98087.88;5019226;28;20049;-71
2023/07/20 10:01:18;;;;;;;3.28;1.10;;;;;;;44.35;12.11;98076.88;5002689;28;20056;-71
2023/07/20 10:03:45;;;;;;;3.47;1.05;;;;;;;42.45;13.18;98102.66;5002709;28;20102;-71
2023/07/20 10:06:14;;;;;;;4.20;1.30;;;;;;;41.70;13.90;98078.09;5051711;28;20044;-71
2023/07/20 10:08:41;;;;;;;5.38;1.17;;;;;;;41.78;13.94;98086.03;5019108;28;20076;-72
2023/07/20 10:11:08;;;;;;;1.90;0.80;;;;;;;41.67;14.37;98079.66;5035387;28;20475;-70
2023/07/20 10:13:38;;;;;;;4.35;1.17;;;;;;;39.84;15.28;98069.16;5051737;28;20127;-70
2023/07/20 10:16:12;;;;;;;3.38;1.23;;;;;;;39.16;16.24;98064.19;5019035;28;20037;-70
2023/07/20 10:18:58;;;;;;;3.45;1.10;;;;;;;37.58;17.71;98077.97;5019047;28;20463;-70
2023/07/20 10:21:24;;;;;;;3.58;1.38;;;;;;;36.63;19.03;98057.66;5052727;28;20095;-70
2023/07/20 10:23:50;;;;;;;3.83;1.33;;;;;;;39.03;16.88;98056.53;5019233;28;20045;-70
2023/07/20 10:26:16;;;;;;;5.70;1.50;;;;;;;41.20;14.94;98079.25;5003241;28;20037;-70
2023/07/20 10:28:42;;;;;;;1.98;1.33;;;;;;;42.52;13.91;98077.50;5018527;28;20078;-70
2023/07/20 10:31:10;;;;;;;9.55;1.38;;;;;;;43.36;12.63;98073.44;5034636;28;20044;-71
2023/07/20 10:33:37;;;;;;;4.03;1.33;;;;;;;42.96;12.80;98051.75;5034485;28;20366;-71
2023/07/20 10:36:07;;;;;;;4.55;1.00;;;;;;;43.19;12.27;98066.78;5034554;28;20162;-70
2023/07/20 10:38:46;;;;;;;2.65;1.00;;;;;;;41.43;13.82;98068.50;5035498;28;20037;-71
2023/07/20 10:41:27;;;;;;;2.60;1.13;;;;;;;38.15;16.23;98052.72;5018715;28;20463;-70
2023/07/20 10:43:58;;;;;;;4.50;1.20;;;;;;;37.66;17.23;98054.75;5051466;28;20119;-69
2023/07/20 10:46:45;;;;;;;3.25;1.80;;;;;;;37.47;17.85;98066.72;5001949;28;20507;-69
2023/07/20 10:49:12;;;;;;;3.03;1.75;;;;;;;37.33;17.90;98063.72;5034640;28;20036;-70
2023/07/20 10:51:40;;;;;;;6.35;1.30;;;;;;;38.07;18.08;98071.22;5018198;28;20044;-70
2023/07/20 10:54:16;;;;;;;4.53;1.13;;;;;;;37.34;18.10;98062.53;5001945;28;20049;-69
2023/07/20 10:56:49;;;;;;;3.08;1.38;;;;;;;36.14;19.32;98078.75;5052162;28;20041;-69
2023/07/20 10:59:25;;;;;;;4.53;1.42;;;;;;;35.96;20.16;98057.41;5018194;28;20110;-69
2023/07/20 11:02:02;;;;;;;5.90;1.60;;;;;;;37.31;18.81;98077.13;5051039;28;20053;-70
2023/07/20 11:04:42;;;;;;;7.03;1.40;;;;;;;37.11;18.10;98084.69;5035350;28;20049;-69
2023/07/20 11:07:08;;;;;;;5.63;1.27;;;;;;;35.41;19.26;98077.81;5051271;28;20387;-70
2023/07/20 11:09:38;;;;;;;3.53;1.20;;;;;;;37.09;17.60;98009.47;5034284;28;20383;-69
2023/07/20 11:12:13;;;;;;;2.90;1.23;;;;;;;36.14;17.91;98084.25;5034426;28;20052;-69
2023/07/20 11:14:56;;;;;;;4.95;1.30;;;;;;;34.80;19.45;98055.28;5051195;28;20135;-69
2023/07/20 11:17:33;;;;;;;1.73;1.10;;;;;;;32.56;21.97;98051.69;5034294;28;20040;-69
2023/07/20 11:20:03;;;;;;;8.65;1.95;;;;;;;33.71;22.40;98081.56;5034413;28;20037;-69
2023/07/20 11:22:31;;;;;;;3.95;1.35;;;;;;;33.65;22.54;98047.16;5051894;28;20041;-70
2023/07/20 11:24:58;;;;;;;1.55;1.00;;;;;;;32.67;22.90;98072.91;5001895;28;20045;-69
2023/07/20 11:27:24;;;;;;;3.90;1.15;;;;;;;32.90;23.45;98062.34;5051148;28;20075;-70
2023/07/20 11:29:50;;;;;;;2.33;1.20;;;;;;;33.64;22.47;98079.41;5034338;28;20048;-70
2023/07/20 11:32:21;;;;;;;2.33;1.17;;;;;;;33.34;22.72;98078.00;5017501;28;20045;-70
2023/07/20 11:34:48;;;;;;;2.83;1.30;;;;;;;33.12;22.51;98097.69;5037511;28;20073;-69
2023/07/20 11:37:14;;;;;;;3.35;1.10;;;;;;;32.80;22.95;98098.50;5021759;28;20393;-69